Upton, NY

1:13 AM EST on December 06, 2016 (GMT -0500)
Raynor Rd | | Change Station

Elev 115 ft 40.90 °N, 72.90 °W | Updated 24 seconds ago

Clear
Clear
33.6 °F
Feels Like 34 °F
N
0.0
Wind Variable Wind from West

Today
High -- | Low -- °F
--% Chance of Precip.
Yesterday
High -- | Low -- °F
Precip. -- in
Pressure 30.09 in
Visibility 10.0 miles
Clouds Clear
Windchill 34 °F
Dew Point 29 °F
Humidity 83%
Rainfall 0.00 in
Snow Depth Not available.
7:01 AM 4:23 PM
Waxing Crescent, 38% visible
METAR KHWV 060556Z AUTO 31003KT 10SM CLR 01/M02 A3009 RMK AO2 SLP190 T00061022 10050 21006 51005 TSNO $
Pressure 30.09 in
Visibility 10.0 miles
Clouds Clear
Windchill 34 °F
Dew Point 29 °F
Humidity 83%
Rainfall 0.00 in
Snow Depth Not available.
7:01 AM 4:23 PM
Waxing Crescent, 38% visible
METAR KHWV 060556Z AUTO 31003KT 10SM CLR 01/M02 A3009 RMK AO2 SLP190 T00061022 10050 21006 51005 TSNO $

10-Day Weather Forecast

Almanac

Astronomy

Dec. 06, 2016 Rise Set
Actual Time
Civil Twilight
Nautical Twilight
Astronomical Twilight
Moon
Length of Visible Light
Length of Day
Tomorrow will be .
, % of the Moon is Illuminated

Today's Extremes

State Highs State Lows

Community

WunderPhotos

Upload Photos

1,955,931 photos uploaded!

WunderBlog® & News

Nearby

Air Quality

  Air Quality AQ Index Pollutant
Not available.

Snow Depth

Station Depth Elevation

Earthquake Activity

City Distance Mag. Time & Date
Minimum magnitude displayed is 2.5.

Coastal Water Temperatures

Place Temperature

Stations

Nearby Weather Stations

Station Location Temp. Windchill Dew Point Humidity Wind Precip. Elev Updated Type
                   

Watches & Warnings

There are currently no watches in effect.